Time;durP1;ratioP1;P1;durP2;ratioP2;P2;SDS_P1;SDS_P2;PMS_P1;PMS_P2;Temp;Humidity;BMP_temperature;BMP_pressure;BME280_temperature;BME280_humidity;BME280_pressure;Samples;Min_cycle;Max_cycle;Signal;HPM_P1;HPM_P2
2022/01/07 00:01:38;;;;;;;74.75;24.08;;;3.10;99.90;;;;;;5049192;28;20025;-59
2022/01/07 00:04:04;;;;;;;71.35;23.85;;;3.10;99.90;;;;;;5048605;28;20025;-52
2022/01/07 00:06:30;;;;;;;66.03;23.63;;;3.10;99.90;;;;;;5049966;28;20116;-54
2022/01/07 00:08:55;;;;;;;68.07;23.00;;;3.10;99.90;;;;;;5048505;28;20398;-53
2022/01/07 00:11:21;;;;;;;75.75;24.42;;;3.10;99.90;;;;;;5047875;28;20063;-54
2022/01/07 00:13:47;;;;;;;61.67;23.52;;;3.10;99.90;;;;;;5049668;28;20119;-53
2022/01/07 00:16:13;;;;;;;74.93;24.35;;;3.10;99.90;;;;;;5049436;28;20119;-57
2022/01/07 00:18:41;;;;;;;66.72;24.52;;;3.10;99.90;;;;;;5052240;28;20037;-55
2022/01/07 00:21:08;;;;;;;59.92;21.55;;;3.10;99.90;;;;;;5050346;28;20087;-56
2022/01/07 00:23:33;;;;;;;64.05;23.85;;;3.10;99.90;;;;;;5053532;28;20029;-56
2022/01/07 00:25:59;;;;;;;66.10;23.10;;;3.10;99.90;;;;;;5051966;28;20483;-57
2022/01/07 00:28:25;;;;;;;64.55;23.83;;;3.10;99.90;;;;;;5052617;28;20040;-55
2022/01/07 00:30:51;;;;;;;58.28;22.70;;;3.10;99.90;;;;;;5051436;28;20066;-57
2022/01/07 00:33:17;;;;;;;62.38;22.90;;;3.10;99.90;;;;;;5052403;28;20040;-57
2022/01/07 00:35:43;;;;;;;59.55;21.98;;;3.10;99.90;;;;;;5051271;28;20033;-57
2022/01/07 00:38:09;;;;;;;57.55;21.40;;;3.10;99.90;;;;;;5051437;28;20526;-57
2022/01/07 00:40:34;;;;;;;60.83;22.35;;;3.10;99.90;;;;;;5051798;28;20025;-57
2022/01/07 00:43:00;;;;;;;57.28;21.88;;;3.10;99.90;;;;;;5051506;28;20029;-56
2022/01/07 00:45:26;;;;;;;64.72;21.95;;;3.10;99.90;;;;;;5044523;28;20108;-54
2022/01/07 00:47:53;;;;;;;61.70;20.77;;;3.10;99.90;;;;;;5050341;28;20029;-54
2022/01/07 00:50:20;;;;;;;64.45;21.60;;;3.10;99.90;;;;;;5051603;28;20052;-55
2022/01/07 00:52:47;;;;;;;60.63;22.13;;;3.00;99.90;;;;;;5051999;28;20075;-56
2022/01/07 00:55:13;;;;;;;59.05;20.20;;;3.00;99.90;;;;;;5051935;28;20037;-54
2022/01/07 00:57:39;;;;;;;58.38;22.75;;;3.10;99.90;;;;;;5052098;28;20096;-57
2022/01/07 01:00:08;;;;;;;52.03;21.63;;;3.00;99.90;;;;;;5050570;28;20112;-57
2022/01/07 01:02:33;;;;;;;61.45;20.67;;;3.00;99.90;;;;;;5051983;28;20455;-56
2022/01/07 01:04:59;;;;;;;68.68;22.42;;;3.00;99.90;;;;;;5050640;28;20045;-56
2022/01/07 01:07:25;;;;;;;54.60;20.60;;;3.00;99.90;;;;;;5050735;28;20494;-57
2022/01/07 01:09:50;;;;;;;60.40;20.17;;;3.00;99.90;;;;;;5051244;28;20679;-54
2022/01/07 01:12:16;;;;;;;50.47;19.90;;;3.00;99.90;;;;;;5050858;28;20123;-58
2022/01/07 01:14:42;;;;;;;49.42;18.77;;;3.10;99.90;;;;;;5052773;28;20033;-57
2022/01/07 01:17:08;;;;;;;51.80;19.08;;;3.10;99.90;;;;;;5050427;28;20024;-57
2022/01/07 01:19:34;;;;;;;55.97;19.13;;;3.00;99.90;;;;;;5051719;28;20071;-58
2022/01/07 01:22:00;;;;;;;49.88;14.23;;;3.10;99.90;;;;;;5050674;28;20037;-55
2022/01/07 01:24:26;;;;;;;50.03;18.25;;;3.10;99.90;;;;;;5043836;28;20025;-56
2022/01/07 01:26:51;;;;;;;50.22;18.35;;;3.10;99.90;;;;;;5050309;28;20040;-56
2022/01/07 01:29:20;;;;;;;55.08;18.90;;;3.10;99.90;;;;;;5050047;28;20045;-53
2022/01/07 01:31:46;;;;;;;53.45;17.40;;;3.10;99.90;;;;;;5050443;28;20490;-57
2022/01/07 01:34:13;;;;;;;59.90;19.10;;;3.20;99.90;;;;;;5050110;28;20060;-57
2022/01/07 01:36:38;;;;;;;46.97;17.40;;;3.10;99.90;;;;;;5051236;28;20032;-54
2022/01/07 01:39:05;;;;;;;50.65;16.67;;;3.10;99.90;;;;;;5049350;28;20017;-57
2022/01/07 01:41:31;;;;;;;50.20;16.35;;;3.10;99.90;;;;;;5049861;28;20347;-55
2022/01/07 01:43:57;;;;;;;45.42;16.42;;;3.10;99.90;;;;;;5050248;28;20033;-57
2022/01/07 01:46:22;;;;;;;62.85;19.55;;;3.20;99.90;;;;;;5050982;28;20028;-57
2022/01/07 01:48:48;;;;;;;49.28;15.82;;;3.10;99.90;;;;;;5050189;28;20044;-58
2022/01/07 01:51:14;;;;;;;52.17;17.25;;;3.10;99.90;;;;;;5050260;28;20029;-56
2022/01/07 01:53:40;;;;;;;43.47;17.52;;;3.20;99.90;;;;;;5050166;28;20371;-60
2022/01/07 01:56:06;;;;;;;49.83;17.65;;;3.20;99.90;;;;;;5050899;28;20394;-55
2022/01/07 01:58:32;;;;;;;53.50;17.73;;;3.10;99.90;;;;;;5050169;28;20021;-57
2022/01/07 02:00:57;;;;;;;52.00;17.50;;;3.10;99.90;;;;;;5049998;28;20090;-58
2022/01/07 02:03:23;;;;;;;42.40;15.98;;;3.10;99.90;;;;;;5049856;28;20053;-57
2022/01/07 02:05:49;;;;;;;43.55;16.83;;;3.20;99.90;;;;;;5050516;28;20068;-57
2022/01/07 02:08:14;;;;;;;49.80;18.02;;;3.10;99.90;;;;;;5049449;28;20132;-55
2022/01/07 02:10:41;;;;;;;44.58;16.35;;;3.10;99.90;;;;;;5050064;28;20090;-57
2022/01/07 02:13:07;;;;;;;43.33;16.20;;;3.10;99.90;;;;;;5049788;28;20423;-55
2022/01/07 02:15:33;;;;;;;49.53;15.35;;;3.10;99.90;;;;;;5050389;28;20021;-57
2022/01/07 02:17:59;;;;;;;45.60;16.48;;;3.20;99.90;;;;;;5049509;28;20032;-58
2022/01/07 02:20:28;;;;;;;49.45;15.27;;;3.10;99.90;;;;;;5048119;28;20100;-55
2022/01/07 02:22:56;;;;;;;38.33;14.18;;;3.10;99.90;;;;;;5050435;28;20103;-58
2022/01/07 02:25:22;;;;;;;38.80;13.10;;;3.20;99.90;;;;;;5046940;28;20041;-54
2022/01/07 02:27:49;;;;;;;38.75;14.63;;;3.20;99.90;;;;;;5048777;28;20025;-57
2022/01/07 02:30:19;;;;;;;44.85;15.05;;;3.20;99.90;;;;;;5049403;28;20037;-57
2022/01/07 02:32:45;;;;;;;49.05;16.05;;;3.10;99.90;;;;;;5050127;28;20090;-58
2022/01/07 02:35:15;;;;;;;34.53;12.25;;;3.20;99.90;;;;;;5050391;28;20029;-56
2022/01/07 02:37:40;;;;;;;41.15;12.98;;;3.20;99.90;;;;;;5049473;28;20613;-57
2022/01/07 02:40:08;;;;;;;37.97;13.13;;;3.10;99.90;;;;;;5049923;28;20112;-57
2022/01/07 02:42:34;;;;;;;38.30;11.55;;;3.20;99.90;;;;;;5049249;28;20021;-57
2022/01/07 02:44:59;;;;;;;36.95;12.18;;;3.20;99.90;;;;;;5049917;28;20502;-56
2022/01/07 02:47:34;;;;;;;32.95;12.40;;;3.20;99.90;;;;;;5049026;28;20154;-56
2022/01/07 02:50:05;;;;;;;39.70;12.60;;;3.10;99.90;;;;;;5049732;28;20071;-58
2022/01/07 02:52:31;;;;;;;33.45;10.88;;;3.20;99.90;;;;;;5048743;28;20033;-55
2022/01/07 02:54:57;;;;;;;36.70;12.27;;;3.20;99.90;;;;;;5049796;28;20029;-58
2022/01/07 02:57:23;;;;;;;37.60;11.63;;;3.20;99.90;;;;;;5048469;28;20489;-58
2022/01/07 02:59:49;;;;;;;29.83;12.32;;;3.20;99.90;;;;;;5048201;28;20036;-55
2022/01/07 03:02:14;;;;;;;35.10;12.05;;;3.20;99.90;;;;;;5048599;28;20108;-55
2022/01/07 03:04:40;;;;;;;41.88;11.32;;;3.20;99.90;;;;;;5049626;28;20025;-57
2022/01/07 03:07:06;;;;;;;37.83;10.85;;;3.20;99.90;;;;;;5048523;28;20040;-58
2022/01/07 03:09:32;;;;;;;29.85;10.50;;;3.40;99.90;;;;;;5048763;28;20075;-58
2022/01/07 03:11:57;;;;;;;35.25;11.52;;;3.20;99.90;;;;;;5048292;28;20432;-57
2022/01/07 03:14:25;;;;;;;29.75;10.45;;;3.30;99.90;;;;;;5049326;28;20025;-53
2022/01/07 03:16:50;;;;;;;35.67;10.30;;;3.20;99.90;;;;;;5048706;28;20036;-57
2022/01/07 03:19:16;;;;;;;31.13;9.68;;;3.30;99.90;;;;;;5048780;28;20025;-56
2022/01/07 03:21:42;;;;;;;28.55;10.20;;;3.20;99.90;;;;;;5048498;28;20025;-58
2022/01/07 03:24:07;;;;;;;35.00;9.95;;;3.20;99.90;;;;;;5048415;28;20379;-54
2022/01/07 03:26:33;;;;;;;37.45;9.35;;;3.30;99.90;;;;;;5049235;28;20040;-55
2022/01/07 03:28:59;;;;;;;28.15;9.43;;;3.30;99.90;;;;;;5048623;28;20028;-57
2022/01/07 03:31:24;;;;;;;33.60;9.90;;;3.30;99.90;;;;;;5046895;28;20032;-55
2022/01/07 03:33:50;;;;;;;32.30;10.27;;;3.30;99.90;;;;;;5048400;28;20134;-56
2022/01/07 03:36:16;;;;;;;38.35;9.93;;;3.30;99.90;;;;;;5048903;28;20560;-54
2022/01/07 03:38:41;;;;;;;25.23;9.88;;;3.40;99.90;;;;;;5048581;28;20060;-54
2022/01/07 03:41:07;;;;;;;34.83;10.00;;;3.40;99.90;;;;;;5048807;28;20032;-53
2022/01/07 03:43:33;;;;;;;28.50;8.40;;;3.30;99.90;;;;;;5048827;28;20032;-58
2022/01/07 03:45:58;;;;;;;27.75;8.45;;;3.40;99.90;;;;;;5049131;28;20037;-57
2022/01/07 03:48:24;;;;;;;33.28;9.70;;;3.30;99.90;;;;;;5048733;28;20035;-53
2022/01/07 03:50:50;;;;;;;26.15;8.60;;;3.30;99.90;;;;;;5049130;28;20033;-57
2022/01/07 03:53:15;;;;;;;27.08;7.80;;;3.40;99.90;;;;;;5051870;28;20029;-56
2022/01/07 03:55:41;;;;;;;34.17;8.65;;;3.40;99.90;;;;;;5052917;28;20033;-56
2022/01/07 03:58:07;;;;;;;33.40;7.57;;;3.40;99.90;;;;;;5052567;28;20035;-54
2022/01/07 04:00:36;;;;;;;27.60;8.80;;;3.50;99.90;;;;;;5052837;28;20029;-56
2022/01/07 04:03:15;;;;;;;20.23;7.07;;;3.40;99.90;;;;;;5052017;28;20021;-55
2022/01/07 04:05:41;;;;;;;25.50;8.05;;;3.40;99.90;;;;;;5052948;28;20506;-57
2022/01/07 04:08:07;;;;;;;25.58;8.57;;;3.40;99.90;;;;;;5052220;28;20024;-55
2022/01/07 04:10:34;;;;;;;27.55;8.57;;;3.40;99.90;;;;;;5052392;28;20102;-56
2022/01/07 04:13:00;;;;;;;29.63;8.02;;;3.40;99.90;;;;;;5056812;28;20037;-54
2022/01/07 04:15:26;;;;;;;24.73;7.10;;;3.40;99.90;;;;;;5056117;28;20070;-56
2022/01/07 04:17:53;;;;;;;29.85;7.97;;;3.40;99.90;;;;;;5052880;28;20466;-58
2022/01/07 04:20:25;;;;;;;20.63;7.45;;;3.40;99.90;;;;;;5052503;28;20037;-56
2022/01/07 04:22:51;;;;;;;23.60;7.68;;;3.40;99.90;;;;;;5053005;28;20032;-56
2022/01/07 04:25:18;;;;;;;27.27;8.65;;;3.40;99.90;;;;;;5051699;28;20116;-56
2022/01/07 04:28:05;;;;;;;25.55;7.68;;;3.40;99.90;;;;;;5052587;28;20124;-57
2022/01/07 04:30:34;;;;;;;25.38;8.23;;;3.30;99.90;;;;;;5051096;28;20359;-57
2022/01/07 04:33:02;;;;;;;25.25;9.45;;;3.20;99.90;;;;;;5052877;28;20029;-56
2022/01/07 04:35:28;;;;;;;32.15;9.30;;;3.20;99.90;;;;;;5051532;28;20223;-56
2022/01/07 04:37:54;;;;;;;33.03;9.13;;;3.00;99.90;;;;;;5052438;28;20021;-59
2022/01/07 04:40:20;;;;;;;27.05;9.95;;;3.00;99.90;;;;;;5051147;28;20043;-56
2022/01/07 04:42:46;;;;;;;22.52;9.18;;;2.90;99.90;;;;;;5052533;28;20059;-59
2022/01/07 04:45:12;;;;;;;34.38;10.40;;;2.80;99.90;;;;;;5051299;28;20112;-60
2022/01/07 04:47:39;;;;;;;25.63;9.43;;;2.80;99.90;;;;;;5051217;28;20327;-58
2022/01/07 04:50:08;;;;;;;35.47;10.88;;;2.70;99.90;;;;;;5051613;28;20036;-57
2022/01/07 04:52:34;;;;;;;35.53;10.45;;;2.70;99.90;;;;;;5052150;28;20020;-61
2022/01/07 04:55:00;;;;;;;31.90;10.23;;;2.60;99.90;;;;;;5051621;28;20094;-60
2022/01/07 04:57:25;;;;;;;36.20;10.75;;;2.60;99.90;;;;;;5051901;28;20216;-60
2022/01/07 04:59:51;;;;;;;29.60;10.77;;;2.50;99.90;;;;;;5050478;28;20037;-58
2022/01/07 05:02:19;;;;;;;28.25;10.05;;;2.50;99.90;;;;;;5050453;28;20475;-60
2022/01/07 05:04:45;;;;;;;30.88;11.13;;;2.40;99.90;;;;;;5051991;28;20029;-60
2022/01/07 05:07:11;;;;;;;32.72;11.85;;;2.40;99.90;;;;;;5050999;28;20111;-59
2022/01/07 05:09:37;;;;;;;30.35;12.85;;;2.40;99.90;;;;;;5051323;28;20132;-60
2022/01/07 05:12:03;;;;;;;28.90;10.48;;;2.50;99.90;;;;;;5050992;28;20112;-60
2022/01/07 05:14:29;;;;;;;32.58;10.68;;;2.50;99.90;;;;;;5051367;28;20025;-58
2022/01/07 05:16:56;;;;;;;32.55;11.18;;;2.50;99.90;;;;;;5049887;28;20510;-59
2022/01/07 05:19:22;;;;;;;35.50;11.85;;;2.50;99.90;;;;;;5051297;28;20024;-60
2022/01/07 05:21:47;;;;;;;36.03;11.95;;;2.40;99.90;;;;;;5049825;28;20029;-60
2022/01/07 05:24:13;;;;;;;30.80;11.45;;;2.50;99.90;;;;;;5050036;28;20030;-60
2022/01/07 05:26:38;;;;;;;34.65;11.43;;;2.50;99.90;;;;;;5050594;28;20061;-59
2022/01/07 05:29:05;;;;;;;27.08;11.57;;;2.50;99.90;;;;;;5051860;28;20584;-60
2022/01/07 05:31:30;;;;;;;29.35;12.45;;;2.50;99.90;;;;;;5049877;28;20433;-59
2022/01/07 05:33:56;;;;;;;30.45;13.30;;;2.50;99.90;;;;;;5051243;28;20160;-60
2022/01/07 05:36:22;;;;;;;35.63;12.27;;;2.50;99.90;;;;;;5048924;28;20506;-58
2022/01/07 05:38:48;;;;;;;33.55;11.82;;;2.60;99.90;;;;;;5045562;28;20098;-60
2022/01/07 05:41:15;;;;;;;32.97;12.43;;;2.50;99.90;;;;;;5043879;28;20379;-59
2022/01/07 05:43:41;;;;;;;26.33;10.90;;;2.60;99.90;;;;;;5051079;28;20025;-57
2022/01/07 05:46:10;;;;;;;37.40;13.13;;;2.50;99.90;;;;;;5045848;28;20714;-58
2022/01/07 05:48:36;;;;;;;31.70;11.98;;;2.50;99.90;;;;;;5040010;28;20021;-55
2022/01/07 05:51:04;;;;;;;30.77;12.68;;;2.50;99.90;;;;;;5050646;28;20025;-56
2022/01/07 05:53:30;;;;;;;28.77;11.93;;;2.50;99.90;;;;;;5047104;28;20122;-52
2022/01/07 05:55:55;;;;;;;30.58;12.40;;;2.50;99.90;;;;;;5050612;28;20079;-57
2022/01/07 05:58:21;;;;;;;25.92;12.35;;;2.50;99.90;;;;;;5050140;28;20033;-52
2022/01/07 06:00:46;;;;;;;33.65;12.75;;;2.50;99.90;;;;;;5048724;28;20108;-54
2022/01/07 06:03:12;;;;;;;27.17;10.98;;;2.50;99.90;;;;;;5047445;28;20029;-53
2022/01/07 06:05:38;;;;;;;32.78;12.05;;;2.50;99.90;;;;;;5047561;28;20322;-56
2022/01/07 06:08:04;;;;;;;28.60;11.52;;;2.60;99.90;;;;;;5044809;28;20494;-53
2022/01/07 06:10:29;;;;;;;28.20;11.63;;;2.50;99.90;;;;;;5048695;28;20138;-52
2022/01/07 06:12:55;;;;;;;25.58;11.43;;;2.50;99.90;;;;;;5049509;28;20036;-54
2022/01/07 06:15:21;;;;;;;34.97;13.68;;;2.50;99.90;;;;;;5049762;28;20029;-57
2022/01/07 06:17:47;;;;;;;27.27;12.68;;;2.50;99.90;;;;;;5049526;28;20040;-60
2022/01/07 06:20:13;;;;;;;27.98;13.73;;;2.60;99.90;;;;;;5050037;28;20036;-59
2022/01/07 06:22:38;;;;;;;28.75;12.57;;;2.50;99.90;;;;;;5049272;28;20112;-61
2022/01/07 06:25:05;;;;;;;27.58;11.93;;;2.50;99.90;;;;;;5050382;28;20104;-60
2022/01/07 06:27:31;;;;;;;26.60;11.55;;;2.50;99.90;;;;;;5041482;28;20107;-58
2022/01/07 06:29:57;;;;;;;26.95;10.88;;;2.60;99.90;;;;;;5031224;28;20029;-59
2022/01/07 06:32:24;;;;;;;20.45;10.63;;;2.50;99.90;;;;;;5045335;28;20116;-55
2022/01/07 06:34:50;;;;;;;23.52;11.15;;;2.60;99.90;;;;;;5048998;28;20040;-59
2022/01/07 06:37:16;;;;;;;29.38;11.77;;;2.60;99.90;;;;;;5049487;28;20104;-60
2022/01/07 06:39:42;;;;;;;30.67;10.98;;;2.60;99.90;;;;;;5049138;28;20104;-58
2022/01/07 06:42:08;;;;;;;22.35;10.77;;;2.60;99.90;;;;;;5044450;28;20018;-60
2022/01/07 06:44:34;;;;;;;26.88;11.48;;;2.60;99.90;;;;;;5049362;28;20136;-59
2022/01/07 06:46:59;;;;;;;33.28;10.45;;;2.60;99.90;;;;;;5048656;28;20545;-56
2022/01/07 06:49:25;;;;;;;25.95;10.77;;;2.60;99.90;;;;;;5049247;28;20029;-61
2022/01/07 06:51:51;;;;;;;24.15;10.60;;;2.50;99.90;;;;;;5050069;28;20074;-61
2022/01/07 06:54:17;;;;;;;25.08;8.35;;;2.50;99.90;;;;;;5050221;28;20094;-62
2022/01/07 06:56:44;;;;;;;31.20;10.95;;;2.50;99.90;;;;;;5049704;28;20055;-60
2022/01/07 06:59:12;;;;;;;26.98;11.88;;;2.30;99.90;;;;;;5048565;28;20024;-61
2022/01/07 07:01:42;;;;;;;23.10;10.55;;;2.40;99.90;;;;;;5037294;28;20416;-58
2022/01/07 07:04:07;;;;;;;24.80;11.63;;;2.40;99.90;;;;;;5043754;28;20546;-58
2022/01/07 07:06:34;;;;;;;27.50;13.82;;;2.30;99.90;;;;;;5048891;28;20121;-59
2022/01/07 07:09:01;;;;;;;27.63;12.50;;;2.40;99.90;;;;;;5051688;28;20403;-57
2022/01/07 07:11:27;;;;;;;26.58;12.25;;;2.40;99.90;;;;;;5059276;28;20033;-58
2022/01/07 07:13:53;;;;;;;26.20;12.23;;;2.30;99.90;;;;;;5047363;28;20103;-61
2022/01/07 07:16:18;;;;;;;24.65;11.73;;;2.30;99.90;;;;;;5046210;28;20123;-61
2022/01/07 07:18:44;;;;;;;19.58;10.73;;;2.40;99.90;;;;;;5047667;28;20035;-64
2022/01/07 07:21:10;;;;;;;25.88;11.82;;;2.30;99.90;;;;;;5043784;28;20399;-57
2022/01/07 07:23:35;;;;;;;23.20;11.35;;;2.30;99.90;;;;;;5046690;28;20070;-58
2022/01/07 07:26:01;;;;;;;24.25;12.32;;;2.40;99.90;;;;;;5045193;28;20037;-56
2022/01/07 07:28:27;;;;;;;17.75;8.15;;;2.40;99.90;;;;;;5049162;28;20068;-54
2022/01/07 07:30:56;;;;;;;22.30;11.45;;;2.40;99.90;;;;;;5048994;28;20033;-61
2022/01/07 07:38:38;;;;;;;27.98;12.50;;;2.40;99.90;;;;;;5044021;28;20079;-62
2022/01/07 07:41:06;;;;;;;20.88;11.40;;;2.50;99.90;;;;;;5049114;28;20425;-62
2022/01/07 07:43:32;;;;;;;19.35;10.98;;;2.50;99.90;;;;;;5049615;28;20025;-62
2022/01/07 07:45:57;;;;;;;25.58;12.13;;;2.50;99.90;;;;;;5045112;28;20032;-53
2022/01/07 07:48:23;;;;;;;28.77;12.60;;;2.60;99.90;;;;;;5047907;28;20036;-61
2022/01/07 07:50:49;;;;;;;20.92;11.52;;;2.70;99.90;;;;;;5047117;28;20479;-48
2022/01/07 07:53:14;;;;;;;27.88;13.15;;;2.80;99.90;;;;;;5048683;28;20033;-57
2022/01/07 07:55:40;;;;;;;26.73;12.23;;;2.60;99.90;;;;;;5047361;28;20037;-54
2022/01/07 07:58:06;;;;;;;27.45;12.15;;;2.70;99.90;;;;;;5048748;28;20050;-54
2022/01/07 08:00:32;;;;;;;28.27;11.98;;;2.70;99.90;;;;;;5047629;28;20037;-57
2022/01/07 08:02:58;;;;;;;23.08;11.88;;;2.70;99.90;;;;;;5047078;28;20025;-56
2022/01/07 08:05:24;;;;;;;28.48;12.82;;;2.70;99.90;;;;;;5047155;28;20407;-54
2022/01/07 08:07:50;;;;;;;22.80;12.80;;;2.60;99.90;;;;;;5048572;28;20037;-55
2022/01/07 08:10:23;;;;;;;25.75;12.40;;;2.70;99.90;;;;;;5047145;28;20044;-57
2022/01/07 08:18:23;;;;;;;21.23;11.55;;;2.70;99.90;;;;;;5044043;28;20048;-55
2022/01/07 08:20:50;;;;;;;29.10;11.50;;;2.70;99.90;;;;;;5045898;28;20521;-55
2022/01/07 08:23:16;;;;;;;24.10;12.27;;;2.70;99.90;;;;;;5047376;28;20029;-57
2022/01/07 08:25:42;;;;;;;23.70;11.88;;;2.70;99.90;;;;;;5047316;28;20497;-56
2022/01/07 08:28:08;;;;;;;25.48;13.90;;;2.70;99.90;;;;;;5046178;28;20124;-53
2022/01/07 08:30:37;;;;;;;25.05;13.05;;;2.70;99.90;;;;;;5047047;28;20112;-55
2022/01/07 08:35:49;;;;;;;21.70;11.88;;;2.70;99.90;;;;;;5048395;28;20167;-51
2022/01/07 08:38:15;;;;;;;24.15;11.20;;;2.70;99.90;;;;;;5050385;28;20550;-54
2022/01/07 08:40:40;;;;;;;24.00;12.55;;;2.60;99.90;;;;;;5051490;28;20442;-53
2022/01/07 08:43:06;;;;;;;27.05;12.15;;;2.70;99.90;;;;;;5051211;28;20028;-50
2022/01/07 08:45:32;;;;;;;24.65;12.32;;;2.60;99.90;;;;;;5049788;28;20406;-56
2022/01/07 08:47:59;;;;;;;22.98;12.30;;;2.60;99.90;;;;;;5044420;28;20040;-54
2022/01/07 08:50:25;;;;;;;23.33;11.63;;;2.60;99.90;;;;;;5051159;28;20413;-52
2022/01/07 08:52:52;;;;;;;23.73;12.27;;;2.60;99.90;;;;;;5050408;28;20394;-50
2022/01/07 08:55:19;;;;;;;22.88;12.23;;;2.50;99.90;;;;;;5051588;28;20116;-51
2022/01/07 08:57:45;;;;;;;25.55;12.75;;;2.50;99.90;;;;;;5048143;28;20036;-53
2022/01/07 09:00:12;;;;;;;22.27;13.02;;;2.50;99.90;;;;;;5047225;28;20061;-51
2022/01/07 09:02:37;;;;;;;21.35;12.90;;;2.50;99.90;;;;;;5050235;28;20022;-54
2022/01/07 09:05:03;;;;;;;21.98;13.07;;;2.50;99.90;;;;;;5050300;28;20068;-49
2022/01/07 09:07:29;;;;;;;23.75;11.85;;;2.60;99.90;;;;;;5049921;28;20406;-52
2022/01/07 09:09:55;;;;;;;21.95;12.48;;;2.60;99.90;;;;;;5047458;28;20032;-52
2022/01/07 09:12:20;;;;;;;21.65;13.48;;;2.60;99.90;;;;;;5047808;28;20037;-52
2022/01/07 09:14:46;;;;;;;20.65;12.45;;;2.60;99.90;;;;;;5049082;28;20430;-54
2022/01/07 09:17:12;;;;;;;18.35;11.18;;;2.60;99.90;;;;;;5049365;28;20037;-53
2022/01/07 09:19:37;;;;;;;20.67;11.80;;;2.70;99.90;;;;;;5046323;28;20032;-54
2022/01/07 09:22:03;;;;;;;21.80;11.85;;;2.60;99.90;;;;;;5049171;28;20025;-52
2022/01/07 09:24:29;;;;;;;19.40;11.45;;;2.60;99.90;;;;;;5050404;28;20070;-52
2022/01/07 09:26:56;;;;;;;23.85;14.48;;;2.50;99.90;;;;;;5049447;28;20039;-52
2022/01/07 09:29:23;;;;;;;21.05;13.95;;;2.60;99.90;;;;;;5050185;28;20025;-52
2022/01/07 09:31:50;;;;;;;23.63;13.55;;;2.60;99.90;;;;;;5050165;28;20039;-55
2022/01/07 09:34:16;;;;;;;25.58;14.57;;;2.50;99.90;;;;;;5051393;28;20471;-51
2022/01/07 09:36:41;;;;;;;23.15;13.82;;;2.50;99.90;;;;;;5050142;28;20098;-55
2022/01/07 09:39:07;;;;;;;24.00;13.63;;;2.60;99.90;;;;;;5051039;28;20405;-50
2022/01/07 09:41:32;;;;;;;23.33;13.93;;;2.50;99.90;;;;;;5048255;28;20105;-55
2022/01/07 09:44:01;;;;;;;28.02;14.30;;;2.50;99.90;;;;;;5051036;28;20475;-52
2022/01/07 09:46:26;;;;;;;21.27;13.73;;;2.60;99.90;;;;;;5046757;28;20438;-54
2022/01/07 09:48:52;;;;;;;26.67;14.82;;;2.50;99.90;;;;;;5049637;28;20048;-50
2022/01/07 09:51:18;;;;;;;20.63;12.68;;;2.60;99.90;;;;;;5048987;28;20076;-53
2022/01/07 09:53:44;;;;;;;28.15;14.20;;;2.60;99.90;;;;;;5050571;28;20513;-51
2022/01/07 09:56:10;;;;;;;24.02;14.95;;;2.70;99.90;;;;;;5049124;28;20040;-52
2022/01/07 09:58:36;;;;;;;21.85;14.13;;;2.70;99.90;;;;;;5050746;28;20044;-54
2022/01/07 10:01:05;;;;;;;29.95;16.65;;;2.60;99.90;;;;;;5048994;28;20482;-53
2022/01/07 10:03:39;;;;;;;26.27;15.43;;;2.70;99.90;;;;;;5050054;28;20029;-52
2022/01/07 10:06:22;;;;;;;25.73;15.52;;;2.70;99.90;;;;;;5042314;28;20411;-57
2022/01/07 10:09:11;;;;;;;25.83;16.13;;;2.70;99.90;;;;;;5039837;28;20048;-56
2022/01/07 10:11:37;;;;;;;25.25;15.85;;;2.80;99.90;;;;;;5041243;28;20390;-56
2022/01/07 10:14:25;;;;;;;28.73;16.63;;;2.80;99.90;;;;;;5049399;28;20028;-56
2022/01/07 10:17:01;;;;;;;29.02;17.42;;;2.70;99.90;;;;;;5044598;28;20041;-52
2022/01/07 10:19:41;;;;;;;31.75;18.10;;;2.80;99.90;;;;;;5048397;28;20072;-55
2022/01/07 10:22:15;;;;;;;30.88;18.15;;;2.70;99.90;;;;;;5046812;28;20284;-51
2022/01/07 10:24:53;;;;;;;36.75;18.65;;;2.80;99.90;;;;;;5050331;28;20017;-53
2022/01/07 10:27:20;;;;;;;29.83;18.00;;;2.80;99.90;;;;;;5049708;28;20055;-54
2022/01/07 10:29:46;;;;;;;28.98;16.27;;;2.80;99.90;;;;;;5047062;28;20032;-53
2022/01/07 10:32:23;;;;;;;30.10;16.67;;;2.70;99.90;;;;;;5048791;28;20031;-53
2022/01/07 10:35:06;;;;;;;26.88;15.77;;;2.80;99.90;;;;;;5048900;28;20394;-54
2022/01/07 10:37:33;;;;;;;29.10;16.00;;;2.80;99.90;;;;;;5042259;28;20029;-54
2022/01/07 10:39:58;;;;;;;25.75;15.70;;;2.80;99.90;;;;;;5048376;28;20463;-51
2022/01/07 10:42:25;;;;;;;28.02;16.13;;;2.80;99.90;;;;;;5048677;28;20033;-52
2022/01/07 10:45:02;;;;;;;28.60;16.70;;;2.80;99.90;;;;;;5045032;28;20082;-55
2022/01/07 10:47:28;;;;;;;24.75;15.82;;;2.80;99.90;;;;;;5029009;28;20025;-54
2022/01/07 10:50:17;;;;;;;28.35;16.15;;;2.80;99.90;;;;;;5049037;28;20060;-55
2022/01/07 10:52:43;;;;;;;23.02;14.98;;;2.80;99.90;;;;;;5045126;28;20017;-58
2022/01/07 10:55:13;;;;;;;23.83;14.85;;;2.80;99.90;;;;;;5049493;28;20368;-55
2022/01/07 10:57:41;;;;;;;27.08;17.33;;;2.80;99.90;;;;;;5049341;28;20040;-50
2022/01/07 11:00:18;;;;;;;30.75;18.00;;;2.80;99.90;;;;;;5049267;28;20083;-51
2022/01/07 11:02:45;;;;;;;27.67;16.30;;;2.80;99.90;;;;;;5048784;28;20033;-52
2022/01/07 11:05:11;;;;;;;27.52;16.73;;;2.90;99.90;;;;;;5050753;28;20048;-53
2022/01/07 11:07:37;;;;;;;33.45;18.10;;;2.90;99.90;;;;;;5049593;28;20029;-53
2022/01/07 11:10:07;;;;;;;28.55;17.70;;;2.90;99.90;;;;;;5049927;28;20109;-57
2022/01/07 11:12:34;;;;;;;31.38;19.42;;;2.90;99.90;;;;;;5049986;28;20048;-52
2022/01/07 11:15:01;;;;;;;37.03;20.30;;;2.90;99.90;;;;;;5048046;28;20032;-54
2022/01/07 11:17:27;;;;;;;32.10;18.40;;;2.90;99.90;;;;;;5048971;28;20021;-55
2022/01/07 11:19:59;;;;;;;35.22;19.85;;;2.90;99.90;;;;;;5047992;28;20151;-55
2022/01/07 11:22:26;;;;;;;37.15;20.67;;;2.90;99.90;;;;;;5045036;28;20041;-52
2022/01/07 11:25:11;;;;;;;38.70;21.17;;;2.90;99.90;;;;;;5049333;28;20151;-50
2022/01/07 11:27:51;;;;;;;36.30;20.90;;;3.00;99.90;;;;;;5047722;28;20084;-53
2022/01/07 11:30:21;;;;;;;36.45;19.95;;;3.00;99.90;;;;;;5048245;28;20086;-55
2022/01/07 11:32:51;;;;;;;33.45;20.25;;;3.10;99.90;;;;;;5048132;28;20116;-52
2022/01/07 11:35:17;;;;;;;35.85;19.65;;;3.10;99.90;;;;;;5047491;28;20068;-57
2022/01/07 11:37:45;;;;;;;35.25;20.77;;;3.10;99.90;;;;;;5041432;28;20049;-53
2022/01/07 11:40:30;;;;;;;37.40;20.85;;;3.10;99.90;;;;;;5044226;28;20041;-56
2022/01/07 11:43:04;;;;;;;36.95;21.63;;;3.10;99.90;;;;;;5048601;28;20025;-57
2022/01/07 11:45:31;;;;;;;39.35;22.33;;;3.10;99.90;;;;;;5047769;28;20037;-51
2022/01/07 11:48:10;;;;;;;37.40;21.83;;;3.20;99.90;;;;;;5039696;28;20033;-58
2022/01/07 11:50:56;;;;;;;37.97;23.35;;;3.10;99.90;;;;;;5042711;28;20025;-55
2022/01/07 11:53:40;;;;;;;36.42;21.40;;;3.10;99.90;;;;;;5029873;28;20090;-56
2022/01/07 11:56:10;;;;;;;39.20;22.90;;;3.20;99.90;;;;;;5047471;28;20037;-54
2022/01/07 11:58:39;;;;;;;43.13;23.50;;;3.20;99.90;;;;;;5047824;28;20036;-57
2022/01/07 12:01:05;;;;;;;40.30;21.77;;;3.20;99.90;;;;;;5047294;28;20536;-54
2022/01/07 12:03:34;;;;;;;43.38;23.25;;;3.30;99.90;;;;;;5047144;28;20029;-52
2022/01/07 12:06:25;;;;;;;41.22;24.05;;;3.30;99.90;;;;;;5046866;28;20041;-53
2022/01/07 12:09:03;;;;;;;39.70;23.00;;;3.30;99.90;;;;;;5044583;28;20154;-54
2022/01/07 12:11:35;;;;;;;45.83;24.42;;;3.40;99.90;;;;;;5038055;28;20124;-54
2022/01/07 12:14:14;;;;;;;41.35;25.80;;;3.40;99.90;;;;;;5050351;28;20033;-57
2022/01/07 12:16:41;;;;;;;47.17;24.58;;;3.40;99.90;;;;;;5046303;28;20071;-56
2022/01/07 12:19:20;;;;;;;44.35;24.00;;;3.50;99.90;;;;;;5052225;28;20112;-56
2022/01/07 12:21:48;;;;;;;40.13;23.33;;;3.60;99.90;;;;;;5052380;28;20021;-54
2022/01/07 12:24:16;;;;;;;40.22;24.05;;;3.60;99.90;;;;;;5051066;28;20108;-57
2022/01/07 12:26:41;;;;;;;42.60;25.17;;;3.60;99.90;;;;;;5050611;28;20021;-53
2022/01/07 12:29:21;;;;;;;42.50;23.73;;;3.60;99.90;;;;;;5051346;28;20025;-57
2022/01/07 12:31:51;;;;;;;44.40;25.00;;;3.60;99.90;;;;;;5051610;28;20459;-58
2022/01/07 12:34:25;;;;;;;38.20;23.50;;;3.60;99.90;;;;;;5052153;28;20266;-57
2022/01/07 12:36:56;;;;;;;43.70;24.65;;;3.60;99.90;;;;;;5051638;28;20112;-58
2022/01/07 12:39:26;;;;;;;48.08;25.25;;;3.60;99.90;;;;;;5050658;28;20052;-58
2022/01/07 12:41:54;;;;;;;46.60;24.63;;;3.70;99.90;;;;;;5049889;28;20102;-57
2022/01/07 12:44:20;;;;;;;41.05;24.63;;;3.70;99.90;;;;;;5051859;28;20523;-59
2022/01/07 12:46:52;;;;;;;39.03;22.90;;;3.80;99.90;;;;;;5050886;28;20029;-52
2022/01/07 12:49:17;;;;;;;46.13;23.33;;;3.80;99.90;;;;;;5033522;28;20504;-56
2022/01/07 12:51:43;;;;;;;38.65;22.92;;;3.90;99.90;;;;;;5048740;28;20037;-54
2022/01/07 12:54:11;;;;;;;40.83;22.00;;;4.00;99.90;;;;;;5051348;28;20112;-57